Terminal Aerodrome Forecast
Issued by NWS

Home | Current Version | Previous Version | Text Only | Print | Product List | Glossary Off
Versions: 1 2 3 4 5 6 7 8 9 10 11 12 13 14 15 16 17 18 19 20 21 22

000
FTUS43 KPAH 221136
TAFOWB
TAF
KOWB 221136Z 2212/2312 00000KT 4SM BR OVC110
      TEMPO 2212/2214 1SM BR OVC010
     FM221400 17004KT 6SM BR BKN012
     FM221600 18006KT P6SM BKN025
     FM222000 20007KT P6SM BKN035
     FM230500 19005KT 6SM BR BKN025=

USA.gov is the U.S. government's official web portal to all federal, state and local government web resources and services.